NOZ843 ESSA-ENBR
Flight info
| Callsign | NOZ843 |
|---|---|
| Flight time | 1h 25m |
| Altitude | 36000 |
| Route | ARS N623 IBGAX DCT EBURI N623 ESEBA DCT ATLAP DCT PESUR |
| Aircraft | B738/M-SDE2E3GHIJ1LRWXY/LB1 |
Departure
| Time | 2026-05-04 12:51 |
|---|---|
| Airport | Stockholm-Arlanda Airport (ESSA) |
Arrival
| Time | 2026-05-04 14:16 |
|---|---|
| Airport | Bergen Airport, Flesland (ENBR) |
| Time | Latitude | Longitude | Altitude | Speed | Heading |
|---|---|---|---|---|---|
| 2026-05-04 12:07 | 59.65149 | 17.92716 | 110 ft | 0 kts | 192° |
| 2026-05-04 12:43 | 59.65159 | 17.92720 | 109 ft | 2 kts | 189° |
| 2026-05-04 12:43 | 59.65173 | 17.92725 | 109 ft | 2 kts | 191° |
| 2026-05-04 12:44 | 59.65188 | 17.92730 | 109 ft | 2 kts | 191° |
| 2026-05-04 12:44 | 59.65203 | 17.92735 | 109 ft | 2 kts | 191° |
| 2026-05-04 12:44 | 59.65218 | 17.92741 | 109 ft | 2 kts | 191° |
| 2026-05-04 12:44 | 59.65232 | 17.92746 | 109 ft | 2 kts | 191° |
| 2026-05-04 12:45 | 59.65247 | 17.92752 | 109 ft | 2 kts | 191° |
| 2026-05-04 12:45 | 59.65252 | 17.92753 | 109 ft | 0 kts | 191° |
| 2026-05-04 12:47 | 59.65251 | 17.92753 | 109 ft | 0 kts | 198° |
| 2026-05-04 12:47 | 59.65247 | 17.92741 | 109 ft | 3 kts | 254° |
| 2026-05-04 12:47 | 59.65256 | 17.92609 | 108 ft | 15 kts | 287° |
| 2026-05-04 12:48 | 59.65293 | 17.92400 | 107 ft | 15 kts | 290° |
| 2026-05-04 12:48 | 59.65362 | 17.92272 | 106 ft | 15 kts | 9° |
| 2026-05-04 12:48 | 59.65461 | 17.92310 | 106 ft | 14 kts | 11° |
| 2026-05-04 12:48 | 59.65553 | 17.92345 | 106 ft | 12 kts | 10° |
| 2026-05-04 12:49 | 59.65641 | 17.92377 | 107 ft | 14 kts | 10° |
| 2026-05-04 12:49 | 59.65742 | 17.92411 | 108 ft | 14 kts | 9° |
| 2026-05-04 12:49 | 59.65835 | 17.92442 | 108 ft | 12 kts | 10° |
| 2026-05-04 12:49 | 59.65905 | 17.92405 | 109 ft | 10 kts | 296° |
| 2026-05-04 12:50 | 59.65920 | 17.92269 | 109 ft | 9 kts | 280° |
| 2026-05-04 12:50 | 59.65924 | 17.92138 | 109 ft | 9 kts | 240° |
| 2026-05-04 12:50 | 59.65872 | 17.92098 | 108 ft | 7 kts | 190° |
| 2026-05-04 12:50 | 59.65686 | 17.92030 | 106 ft | 61 kts | 191° |
| 2026-05-04 12:51 | 59.65024 | 17.91790 | 103 ft | 127 kts | 190° |
| 2026-05-04 12:51 | 59.63985 | 17.91409 | 221 ft | 169 kts | 192° |
| 2026-05-04 12:51 | 59.62848 | 17.90932 | 945 ft | 171 kts | 196° |
| 2026-05-04 12:51 | 59.61681 | 17.90356 | 1633 ft | 175 kts | 206° |
| 2026-05-04 12:52 | 59.60816 | 17.88894 | 2222 ft | 171 kts | 243° |
| 2026-05-04 12:52 | 59.60272 | 17.86680 | 2591 ft | 184 kts | 244° |
| 2026-05-04 12:52 | 59.59645 | 17.84477 | 3070 ft | 193 kts | 241° |
| 2026-05-04 12:52 | 59.58913 | 17.82078 | 3434 ft | 209 kts | 241° |
| 2026-05-04 12:53 | 59.58206 | 17.79559 | 4020 ft | 212 kts | 244° |
| 2026-05-04 12:53 | 59.57534 | 17.76981 | 4674 ft | 213 kts | 244° |
| 2026-05-04 12:53 | 59.56898 | 17.74333 | 5283 ft | 214 kts | 251° |
| 2026-05-04 12:53 | 59.56654 | 17.71436 | 5757 ft | 223 kts | 270° |
| 2026-05-04 12:54 | 59.56858 | 17.68322 | 6176 ft | 238 kts | 280° |
| 2026-05-04 12:54 | 59.57226 | 17.65032 | 6556 ft | 254 kts | 281° |
| 2026-05-04 12:54 | 59.57620 | 17.61550 | 6996 ft | 267 kts | 281° |
| 2026-05-04 12:54 | 59.58014 | 17.57870 | 7475 ft | 279 kts | 280° |
| 2026-05-04 12:55 | 59.58403 | 17.54112 | 8268 ft | 279 kts | 280° |
| 2026-05-04 12:55 | 59.58779 | 17.50434 | 9155 ft | 275 kts | 279° |
| 2026-05-04 12:55 | 59.59157 | 17.46700 | 9772 ft | 282 kts | 279° |
| 2026-05-04 12:55 | 59.59547 | 17.42835 | 10334 ft | 292 kts | 279° |
| 2026-05-04 12:56 | 59.59946 | 17.38881 | 10967 ft | 299 kts | 279° |
| 2026-05-04 12:56 | 59.60354 | 17.34840 | 11740 ft | 300 kts | 279° |
| 2026-05-04 12:56 | 59.60758 | 17.30834 | 12535 ft | 302 kts | 278° |
| 2026-05-04 12:56 | 59.61168 | 17.26738 | 13302 ft | 306 kts | 278° |
| 2026-05-04 12:57 | 59.61574 | 17.22649 | 14077 ft | 308 kts | 278° |
| 2026-05-04 12:57 | 59.61988 | 17.18464 | 14839 ft | 312 kts | 278° |
| 2026-05-04 12:57 | 59.62387 | 17.14424 | 15620 ft | 314 kts | 278° |
| 2026-05-04 12:57 | 59.62805 | 17.10201 | 16361 ft | 317 kts | 278° |
| 2026-05-04 12:58 | 59.63228 | 17.05919 | 17102 ft | 320 kts | 277° |
| 2026-05-04 12:58 | 59.63655 | 17.01589 | 17868 ft | 322 kts | 277° |
| 2026-05-04 12:58 | 59.64080 | 16.97257 | 18543 ft | 325 kts | 277° |
| 2026-05-04 12:58 | 59.64510 | 16.92855 | 19256 ft | 328 kts | 277° |
| 2026-05-04 12:59 | 59.64941 | 16.88421 | 19933 ft | 331 kts | 277° |
| 2026-05-04 12:59 | 59.65369 | 16.84011 | 20621 ft | 332 kts | 277° |
| 2026-05-04 12:59 | 59.65805 | 16.79499 | 21214 ft | 336 kts | 277° |
| 2026-05-04 12:59 | 59.66244 | 16.74943 | 21845 ft | 339 kts | 277° |
| 2026-05-04 13:00 | 59.66687 | 16.70328 | 22423 ft | 342 kts | 277° |
| 2026-05-04 13:00 | 59.67128 | 16.65707 | 23017 ft | 345 kts | 277° |
| 2026-05-04 13:00 | 59.67574 | 16.61035 | 23580 ft | 347 kts | 277° |
| 2026-05-04 13:00 | 59.68017 | 16.56359 | 24128 ft | 350 kts | 277° |
| 2026-05-04 13:01 | 59.68463 | 16.51633 | 24630 ft | 354 kts | 277° |
| 2026-05-04 13:01 | 59.68916 | 16.46820 | 25201 ft | 355 kts | 277° |
| 2026-05-04 13:01 | 59.69371 | 16.41952 | 25695 ft | 359 kts | 277° |
| 2026-05-04 13:01 | 59.69825 | 16.37082 | 26176 ft | 362 kts | 277° |
| 2026-05-04 13:02 | 59.70281 | 16.32177 | 26716 ft | 363 kts | 276° |
| 2026-05-04 13:02 | 59.70736 | 16.27257 | 27103 ft | 367 kts | 276° |
| 2026-05-04 13:02 | 59.71202 | 16.22203 | 27593 ft | 370 kts | 276° |
| 2026-05-04 13:02 | 59.71663 | 16.17185 | 28066 ft | 372 kts | 276° |
| 2026-05-04 13:03 | 59.72126 | 16.12119 | 28511 ft | 374 kts | 276° |
| 2026-05-04 13:03 | 59.72591 | 16.07007 | 28934 ft | 377 kts | 277° |
| 2026-05-04 13:03 | 59.73050 | 16.01932 | 29326 ft | 380 kts | 277° |
| 2026-05-04 13:03 | 59.73517 | 15.96749 | 29748 ft | 382 kts | 277° |
| 2026-05-04 13:04 | 59.73988 | 15.91488 | 30161 ft | 384 kts | 277° |
| 2026-05-04 13:04 | 59.74453 | 15.86261 | 30584 ft | 386 kts | 277° |
| 2026-05-04 13:04 | 59.74919 | 15.81001 | 30866 ft | 390 kts | 277° |
| 2026-05-04 13:04 | 59.75381 | 15.75761 | 31262 ft | 390 kts | 277° |
| 2026-05-04 13:05 | 59.75847 | 15.70484 | 31802 ft | 386 kts | 277° |
| 2026-05-04 13:05 | 59.76310 | 15.65203 | 32202 ft | 384 kts | 277° |
| 2026-05-04 13:05 | 59.76763 | 15.60014 | 32489 ft | 385 kts | 277° |
| 2026-05-04 13:05 | 59.77220 | 15.54729 | 32794 ft | 386 kts | 277° |
| 2026-05-04 13:06 | 59.77674 | 15.49470 | 33150 ft | 385 kts | 276° |
| 2026-05-04 13:06 | 59.78120 | 15.44263 | 33481 ft | 383 kts | 277° |
| 2026-05-04 13:06 | 59.78565 | 15.39055 | 33792 ft | 382 kts | 276° |
| 2026-05-04 13:06 | 59.79005 | 15.33874 | 34072 ft | 382 kts | 275° |
| 2026-05-04 13:07 | 59.79446 | 15.28653 | 34378 ft | 382 kts | 276° |
| 2026-05-04 13:07 | 59.79881 | 15.23483 | 34641 ft | 382 kts | 276° |
| 2026-05-04 13:07 | 59.80316 | 15.18269 | 34876 ft | 384 kts | 276° |
| 2026-05-04 13:07 | 59.80755 | 15.12985 | 35147 ft | 385 kts | 276° |
| 2026-05-04 13:08 | 59.81184 | 15.07796 | 35418 ft | 384 kts | 276° |
| 2026-05-04 13:08 | 59.81616 | 15.02563 | 35601 ft | 386 kts | 276° |
| 2026-05-04 13:08 | 59.82049 | 14.97275 | 35616 ft | 388 kts | 276° |
| 2026-05-04 13:09 | 59.82907 | 14.86739 | 35628 ft | 384 kts | 276° |
| 2026-05-04 13:09 | 59.83754 | 14.76249 | 35624 ft | 383 kts | 276° |
| 2026-05-04 13:10 | 59.84587 | 14.65786 | 35618 ft | 383 kts | 276° |
| 2026-05-04 13:10 | 59.85410 | 14.55352 | 35636 ft | 383 kts | 276° |
| 2026-05-04 13:11 | 59.86227 | 14.44890 | 35631 ft | 383 kts | 276° |
| 2026-05-04 13:11 | 59.87034 | 14.34456 | 35630 ft | 383 kts | 276° |
| 2026-05-04 13:12 | 59.87837 | 14.23949 | 35642 ft | 382 kts | 276° |
| 2026-05-04 13:12 | 59.88623 | 14.13534 | 35640 ft | 381 kts | 275° |
| 2026-05-04 13:13 | 59.89405 | 14.03073 | 35645 ft | 381 kts | 276° |
| 2026-05-04 13:13 | 59.90172 | 13.92696 | 35643 ft | 380 kts | 276° |
| 2026-05-04 13:14 | 59.90931 | 13.82317 | 35644 ft | 380 kts | 276° |
| 2026-05-04 13:14 | 59.91686 | 13.71880 | 35650 ft | 379 kts | 276° |
| 2026-05-04 13:15 | 59.92427 | 13.61490 | 35652 ft | 378 kts | 276° |
| 2026-05-04 13:15 | 59.93167 | 13.50996 | 35819 ft | 383 kts | 276° |
| 2026-05-04 13:15 | 59.93530 | 13.45808 | 36086 ft | 381 kts | 276° |
| 2026-05-04 13:16 | 59.93897 | 13.40540 | 36315 ft | 381 kts | 276° |
| 2026-05-04 13:16 | 59.94259 | 13.35311 | 36477 ft | 383 kts | 276° |
| 2026-05-04 13:16 | 59.94622 | 13.30054 | 36632 ft | 385 kts | 275° |
| 2026-05-04 13:16 | 59.94986 | 13.24756 | 36770 ft | 387 kts | 275° |
| 2026-05-04 13:17 | 59.95346 | 13.19452 | 36948 ft | 388 kts | 275° |
| 2026-05-04 13:17 | 59.95705 | 13.14128 | 37111 ft | 390 kts | 275° |
| 2026-05-04 13:17 | 59.96065 | 13.08755 | 37262 ft | 391 kts | 275° |
| 2026-05-04 13:17 | 59.96423 | 13.03374 | 37434 ft | 391 kts | 275° |
| 2026-05-04 13:18 | 59.96781 | 12.97967 | 37569 ft | 393 kts | 275° |
| 2026-05-04 13:18 | 59.97498 | 12.87048 | 37636 ft | 396 kts | 275° |
| 2026-05-04 13:19 | 59.98198 | 12.76258 | 37637 ft | 391 kts | 275° |
| 2026-05-04 13:19 | 59.98954 | 12.65475 | 37639 ft | 393 kts | 277° |
| 2026-05-04 13:20 | 59.99891 | 12.54678 | 37643 ft | 394 kts | 277° |
| 2026-05-04 13:20 | 60.00647 | 12.43897 | 37650 ft | 393 kts | 275° |
| 2026-05-04 13:21 | 60.01268 | 12.33056 | 37641 ft | 393 kts | 274° |
| 2026-05-04 13:21 | 60.01899 | 12.22250 | 37649 ft | 392 kts | 275° |
| 2026-05-04 13:22 | 60.02542 | 12.11424 | 37649 ft | 392 kts | 275° |
| 2026-05-04 13:22 | 60.03194 | 12.00525 | 37655 ft | 392 kts | 275° |
| 2026-05-04 13:23 | 60.03833 | 11.89691 | 37643 ft | 392 kts | 275° |
| 2026-05-04 13:23 | 60.04467 | 11.78895 | 37638 ft | 392 kts | 274° |
| 2026-05-04 13:24 | 60.05092 | 11.68021 | 37645 ft | 393 kts | 275° |
| 2026-05-04 13:24 | 60.05714 | 11.57083 | 37644 ft | 393 kts | 275° |
| 2026-05-04 13:25 | 60.06623 | 11.40793 | 37659 ft | 392 kts | 275° |
| 2026-05-04 13:25 | 60.07223 | 11.29838 | 37651 ft | 395 kts | 274° |
| 2026-05-04 13:26 | 60.07810 | 11.18953 | 37647 ft | 393 kts | 274° |
| 2026-05-04 13:26 | 60.08392 | 11.08036 | 37653 ft | 396 kts | 274° |
| 2026-05-04 13:27 | 60.08970 | 10.96925 | 37650 ft | 400 kts | 274° |
| 2026-05-04 13:27 | 60.09535 | 10.85907 | 37657 ft | 396 kts | 275° |
| 2026-05-04 13:28 | 60.10095 | 10.74825 | 37665 ft | 399 kts | 274° |
| 2026-05-04 13:28 | 60.10642 | 10.63880 | 37654 ft | 397 kts | 274° |
| 2026-05-04 13:29 | 60.11186 | 10.52741 | 37651 ft | 395 kts | 275° |
| 2026-05-04 13:29 | 60.11708 | 10.41826 | 37644 ft | 394 kts | 275° |
| 2026-05-04 13:30 | 60.12217 | 10.30943 | 37652 ft | 395 kts | 274° |
| 2026-05-04 13:30 | 60.12731 | 10.19852 | 37652 ft | 404 kts | 274° |
| 2026-05-04 13:31 | 60.13247 | 10.08482 | 37650 ft | 407 kts | 274° |
| 2026-05-04 13:31 | 60.13747 | 9.97238 | 37647 ft | 403 kts | 274° |
| 2026-05-04 13:32 | 60.14235 | 9.86048 | 37662 ft | 403 kts | 275° |
| 2026-05-04 13:32 | 60.14712 | 9.74881 | 37665 ft | 402 kts | 274° |
| 2026-05-04 13:33 | 60.15187 | 9.63665 | 37671 ft | 402 kts | 274° |
| 2026-05-04 13:33 | 60.15649 | 9.52524 | 37667 ft | 400 kts | 274° |
| 2026-05-04 13:34 | 60.16096 | 9.41425 | 37650 ft | 399 kts | 274° |
| 2026-05-04 13:34 | 60.16526 | 9.30400 | 37653 ft | 396 kts | 274° |
| 2026-05-04 13:35 | 60.17161 | 9.13838 | 37441 ft | 397 kts | 274° |
| 2026-05-04 13:35 | 60.17370 | 9.08288 | 37114 ft | 396 kts | 274° |
| 2026-05-04 13:36 | 60.17578 | 9.02715 | 36613 ft | 397 kts | 274° |
| 2026-05-04 13:36 | 60.17783 | 8.97187 | 36028 ft | 399 kts | 274° |
| 2026-05-04 13:36 | 60.17987 | 8.91597 | 35441 ft | 399 kts | 274° |
| 2026-05-04 13:36 | 60.18186 | 8.86033 | 34891 ft | 397 kts | 274° |
| 2026-05-04 13:37 | 60.18380 | 8.80514 | 34393 ft | 396 kts | 273° |
| 2026-05-04 13:37 | 60.18573 | 8.74994 | 33843 ft | 394 kts | 273° |
| 2026-05-04 13:37 | 60.18761 | 8.69536 | 33270 ft | 393 kts | 274° |
| 2026-05-04 13:37 | 60.18883 | 8.65943 | 32821 ft | 392 kts | 274° |
| 2026-05-04 13:38 | 60.19130 | 8.58643 | 31957 ft | 390 kts | 275° |
| 2026-05-04 13:38 | 60.19309 | 8.53259 | 31328 ft | 387 kts | 275° |
| 2026-05-04 13:38 | 60.19486 | 8.47882 | 30785 ft | 381 kts | 275° |
| 2026-05-04 13:38 | 60.19656 | 8.42644 | 30294 ft | 375 kts | 275° |
| 2026-05-04 13:39 | 60.19821 | 8.37462 | 29782 ft | 369 kts | 275° |
| 2026-05-04 13:39 | 60.19983 | 8.32344 | 29267 ft | 363 kts | 275° |
| 2026-05-04 13:39 | 60.20140 | 8.27363 | 28769 ft | 358 kts | 275° |
| 2026-05-04 13:39 | 60.20291 | 8.22451 | 28261 ft | 353 kts | 275° |
| 2026-05-04 13:40 | 60.20441 | 8.17553 | 27753 ft | 348 kts | 274° |
| 2026-05-04 13:40 | 60.20587 | 8.12692 | 27241 ft | 343 kts | 275° |
| 2026-05-04 13:40 | 60.20728 | 8.07968 | 26737 ft | 338 kts | 275° |
| 2026-05-04 13:40 | 60.20869 | 8.03229 | 26228 ft | 334 kts | 274° |
| 2026-05-04 13:41 | 60.21004 | 7.98607 | 25723 ft | 330 kts | 275° |
| 2026-05-04 13:41 | 60.21135 | 7.94082 | 25225 ft | 325 kts | 274° |
| 2026-05-04 13:41 | 60.21265 | 7.89553 | 24721 ft | 321 kts | 274° |
| 2026-05-04 13:42 | 60.21511 | 7.80768 | 23745 ft | 313 kts | 274° |
| 2026-05-04 13:42 | 60.21628 | 7.76445 | 23370 ft | 306 kts | 273° |
| 2026-05-04 13:42 | 60.21742 | 7.72205 | 22997 ft | 300 kts | 273° |
| 2026-05-04 13:42 | 60.21853 | 7.68061 | 22604 ft | 294 kts | 273° |
| 2026-05-04 13:43 | 60.21963 | 7.63983 | 22244 ft | 288 kts | 274° |
| 2026-05-04 13:43 | 60.22068 | 7.60034 | 21895 ft | 282 kts | 273° |
| 2026-05-04 13:43 | 60.22171 | 7.56084 | 21630 ft | 283 kts | 274° |
| 2026-05-04 13:43 | 60.22272 | 7.52084 | 21386 ft | 291 kts | 273° |
| 2026-05-04 13:44 | 60.22375 | 7.48007 | 21125 ft | 288 kts | 273° |
| 2026-05-04 13:44 | 60.22474 | 7.44057 | 20870 ft | 284 kts | 274° |
| 2026-05-04 13:44 | 60.22574 | 7.40026 | 20629 ft | 285 kts | 274° |
| 2026-05-04 13:44 | 60.22673 | 7.36031 | 20367 ft | 284 kts | 272° |
| 2026-05-04 13:45 | 60.22766 | 7.32144 | 20126 ft | 283 kts | 272° |
| 2026-05-04 13:45 | 60.22861 | 7.28162 | 19810 ft | 283 kts | 272° |
| 2026-05-04 13:45 | 60.22954 | 7.24236 | 19451 ft | 282 kts | 271° |
| 2026-05-04 13:45 | 60.23045 | 7.20306 | 19078 ft | 279 kts | 272° |
| 2026-05-04 13:46 | 60.23134 | 7.16422 | 18691 ft | 276 kts | 272° |
| 2026-05-04 13:46 | 60.23219 | 7.12593 | 18322 ft | 275 kts | 272° |
| 2026-05-04 13:46 | 60.23306 | 7.08698 | 17945 ft | 277 kts | 272° |
| 2026-05-04 13:46 | 60.23391 | 7.04837 | 17551 ft | 277 kts | 272° |
| 2026-05-04 13:47 | 60.23478 | 7.00957 | 17159 ft | 275 kts | 272° |
| 2026-05-04 13:47 | 60.23561 | 6.97102 | 16763 ft | 274 kts | 272° |
| 2026-05-04 13:47 | 60.23641 | 6.93265 | 16360 ft | 274 kts | 272° |
| 2026-05-04 13:47 | 60.23721 | 6.89423 | 15935 ft | 274 kts | 271° |
| 2026-05-04 13:48 | 60.23797 | 6.85618 | 15537 ft | 274 kts | 272° |
| 2026-05-04 13:48 | 60.23876 | 6.81807 | 15114 ft | 275 kts | 272° |
| 2026-05-04 13:48 | 60.23956 | 6.77941 | 14689 ft | 274 kts | 272° |
| 2026-05-04 13:48 | 60.24030 | 6.74122 | 14289 ft | 273 kts | 272° |
| 2026-05-04 13:49 | 60.24107 | 6.70286 | 13868 ft | 271 kts | 272° |
| 2026-05-04 13:49 | 60.24183 | 6.66541 | 13489 ft | 267 kts | 273° |
| 2026-05-04 13:49 | 60.24260 | 6.62854 | 13104 ft | 264 kts | 272° |
| 2026-05-04 13:49 | 60.24322 | 6.59124 | 12698 ft | 262 kts | 270° |
| 2026-05-04 13:50 | 60.24236 | 6.55509 | 12314 ft | 260 kts | 266° |
| 2026-05-04 13:50 | 60.24062 | 6.51919 | 11942 ft | 259 kts | 265° |
| 2026-05-04 13:50 | 60.23869 | 6.48318 | 11557 ft | 260 kts | 264° |
| 2026-05-04 13:50 | 60.23685 | 6.44714 | 11162 ft | 259 kts | 265° |
| 2026-05-04 13:51 | 60.23508 | 6.41107 | 10780 ft | 259 kts | 265° |
| 2026-05-04 13:51 | 60.23333 | 6.37516 | 10379 ft | 256 kts | 265° |
| 2026-05-04 13:51 | 60.23160 | 6.34004 | 10045 ft | 252 kts | 264° |
| 2026-05-04 13:51 | 60.22995 | 6.30654 | 9804 ft | 247 kts | 264° |
| 2026-05-04 13:52 | 60.22661 | 6.23943 | 9281 ft | 236 kts | 264° |
| 2026-05-04 13:52 | 60.22494 | 6.20665 | 9033 ft | 235 kts | 264° |
| 2026-05-04 13:52 | 60.22380 | 6.17395 | 8787 ft | 236 kts | 270° |
| 2026-05-04 13:53 | 60.22417 | 6.14087 | 8603 ft | 234 kts | 271° |
| 2026-05-04 13:53 | 60.22416 | 6.10825 | 8414 ft | 232 kts | 268° |
| 2026-05-04 13:53 | 60.22376 | 6.07563 | 8230 ft | 234 kts | 269° |
| 2026-05-04 13:54 | 60.22337 | 6.01007 | 7817 ft | 229 kts | 268° |
| 2026-05-04 13:54 | 60.22292 | 5.97821 | 7627 ft | 227 kts | 268° |
| 2026-05-04 13:54 | 60.22230 | 5.91512 | 7049 ft | 223 kts | 269° |
| 2026-05-04 13:55 | 60.22207 | 5.88395 | 6762 ft | 225 kts | 269° |
| 2026-05-04 13:55 | 60.22134 | 5.82070 | 6200 ft | 223 kts | 269° |
| 2026-05-04 13:55 | 60.22094 | 5.78986 | 6036 ft | 221 kts | 269° |
| 2026-05-04 13:56 | 60.22058 | 5.75848 | 5782 ft | 227 kts | 269° |
| 2026-05-04 13:56 | 60.22024 | 5.72658 | 5474 ft | 225 kts | 269° |
| 2026-05-04 13:56 | 60.21944 | 5.66417 | 4900 ft | 220 kts | 269° |
| 2026-05-04 13:57 | 60.21899 | 5.63357 | 4611 ft | 218 kts | 269° |
| 2026-05-04 13:57 | 60.21856 | 5.60286 | 4346 ft | 216 kts | 269° |
| 2026-05-04 13:58 | 60.21736 | 5.51589 | 4087 ft | 207 kts | 270° |
| 2026-05-04 13:58 | 60.21333 | 5.45899 | 3863 ft | 208 kts | 247° |
| 2026-05-04 13:58 | 60.20597 | 5.43308 | 3442 ft | 216 kts | 241° |
| 2026-05-04 13:59 | 60.19822 | 5.40724 | 3086 ft | 216 kts | 243° |
| 2026-05-04 13:59 | 60.19101 | 5.38155 | 2775 ft | 204 kts | 245° |
| 2026-05-04 13:59 | 60.18146 | 5.33362 | 2344 ft | 164 kts | 269° |
| 2026-05-04 14:00 | 60.18236 | 5.31198 | 2201 ft | 151 kts | 282° |
| 2026-05-04 14:00 | 60.19055 | 5.27386 | 1928 ft | 151 kts | 310° |
| 2026-05-04 14:00 | 60.19814 | 5.25908 | 1780 ft | 149 kts | 321° |
| 2026-05-04 14:01 | 60.20691 | 5.24824 | 1637 ft | 150 kts | 336° |
| 2026-05-04 14:01 | 60.21708 | 5.24255 | 1519 ft | 150 kts | 347° |
| 2026-05-04 14:01 | 60.23804 | 5.23652 | 1400 ft | 152 kts | 348° |
| 2026-05-04 14:02 | 60.24813 | 5.23280 | 1126 ft | 149 kts | 347° |
| 2026-05-04 14:02 | 60.25830 | 5.22937 | 785 ft | 148 kts | 348° |
| 2026-05-04 14:02 | 60.26825 | 5.22610 | 680 ft | 148 kts | 350° |
| 2026-05-04 14:02 | 60.27812 | 5.22283 | 1381 ft | 148 kts | 348° |
| 2026-05-04 14:03 | 60.28917 | 5.21914 | 1187 ft | 182 kts | 348° |
| 2026-05-04 14:03 | 60.30099 | 5.21505 | 1555 ft | 157 kts | 349° |
| 2026-05-04 14:03 | 60.31148 | 5.21154 | 2232 ft | 163 kts | 348° |
| 2026-05-04 14:03 | 60.32355 | 5.20740 | 2123 ft | 187 kts | 348° |
| 2026-05-04 14:04 | 60.35150 | 5.19779 | 2067 ft | 215 kts | 347° |
| 2026-05-04 14:04 | 60.36566 | 5.18630 | 2314 ft | 218 kts | 324° |
| 2026-05-04 14:04 | 60.37595 | 5.16271 | 2873 ft | 228 kts | 300° |
| 2026-05-04 14:05 | 60.37953 | 5.09965 | 3010 ft | 228 kts | 262° |
| 2026-05-04 14:05 | 60.37656 | 5.06836 | 3005 ft | 229 kts | 262° |
| 2026-05-04 14:05 | 60.37365 | 5.03632 | 3005 ft | 228 kts | 263° |
| 2026-05-04 14:06 | 60.36988 | 5.00427 | 3178 ft | 245 kts | 251° |
| 2026-05-04 14:06 | 60.36060 | 4.97696 | 4388 ft | 241 kts | 227° |
| 2026-05-04 14:06 | 60.34643 | 4.95815 | 5021 ft | 248 kts | 207° |
| 2026-05-04 14:06 | 60.32941 | 4.95103 | 5029 ft | 254 kts | 184° |
| 2026-05-04 14:07 | 60.31191 | 4.95497 | 5014 ft | 255 kts | 173° |
| 2026-05-04 14:07 | 60.29439 | 4.96158 | 5010 ft | 255 kts | 173° |
| 2026-05-04 14:07 | 60.27704 | 4.96818 | 5006 ft | 255 kts | 173° |
| 2026-05-04 14:07 | 60.25948 | 4.97500 | 5003 ft | 255 kts | 173° |
| 2026-05-04 14:08 | 60.24200 | 4.98187 | 5004 ft | 255 kts | 173° |
| 2026-05-04 14:08 | 60.22458 | 4.98877 | 5005 ft | 255 kts | 173° |
| 2026-05-04 14:08 | 60.20717 | 4.99565 | 5011 ft | 260 kts | 173° |
| 2026-05-04 14:08 | 60.18892 | 5.00285 | 4981 ft | 274 kts | 172° |
| 2026-05-04 14:09 | 60.15118 | 5.01766 | 4599 ft | 274 kts | 172° |
| 2026-05-04 14:09 | 60.13327 | 5.03007 | 4392 ft | 271 kts | 149° |
| 2026-05-04 14:10 | 60.10784 | 5.08321 | 4003 ft | 259 kts | 130° |
| 2026-05-04 14:10 | 60.09651 | 5.11106 | 3800 ft | 253 kts | 127° |
| 2026-05-04 14:10 | 60.08766 | 5.14092 | 3604 ft | 247 kts | 111° |
| 2026-05-04 14:10 | 60.08482 | 5.17392 | 3495 ft | 234 kts | 82° |
| 2026-05-04 14:11 | 60.08881 | 5.20423 | 3461 ft | 217 kts | 63° |
| 2026-05-04 14:11 | 60.10241 | 5.25320 | 3386 ft | 187 kts | 47° |
| 2026-05-04 14:11 | 60.11224 | 5.26953 | 3062 ft | 183 kts | 18° |
| 2026-05-04 14:12 | 60.12412 | 5.27269 | 2979 ft | 171 kts | 349° |
| 2026-05-04 14:12 | 60.13603 | 5.26897 | 2993 ft | 166 kts | 349° |
| 2026-05-04 14:12 | 60.15774 | 5.26290 | 2792 ft | 154 kts | 348° |
| 2026-05-04 14:13 | 60.16813 | 5.25960 | 2571 ft | 152 kts | 347° |
| 2026-05-04 14:13 | 60.17865 | 5.25621 | 2351 ft | 153 kts | 347° |
| 2026-05-04 14:13 | 60.18925 | 5.25274 | 2134 ft | 154 kts | 347° |
| 2026-05-04 14:13 | 60.19978 | 5.24927 | 1909 ft | 150 kts | 348° |
| 2026-05-04 14:14 | 60.21006 | 5.24587 | 1696 ft | 150 kts | 349° |
| 2026-05-04 14:14 | 60.23023 | 5.23916 | 1278 ft | 141 kts | 348° |
| 2026-05-04 14:14 | 60.23981 | 5.23595 | 1085 ft | 137 kts | 348° |
| 2026-05-04 14:15 | 60.25888 | 5.22955 | 695 ft | 138 kts | 350° |
| 2026-05-04 14:15 | 60.27798 | 5.22299 | 299 ft | 138 kts | 351° |
| 2026-05-04 14:16 | 60.29425 | 5.21786 | 159 ft | 68 kts | 349° |
| 2026-05-04 14:16 | 60.29686 | 5.21730 | 157 ft | 20 kts | 32° |
| 2026-05-04 14:17 | 60.29668 | 5.22029 | 156 ft | 9 kts | 170° |
| 2026-05-04 14:17 | 60.29607 | 5.22049 | 157 ft | 9 kts | 171° |
| 2026-05-04 14:17 | 60.29385 | 5.22120 | 161 ft | 16 kts | 171° |
| 2026-05-04 14:18 | 60.29280 | 5.22155 | 162 ft | 14 kts | 170° |
| 2026-05-04 14:18 | 60.29112 | 5.22215 | 165 ft | 10 kts | 169° |
| 2026-05-04 14:19 | 60.28989 | 5.22253 | 167 ft | 7 kts | 171° |
| 2026-05-04 14:19 | 60.28941 | 5.22269 | 167 ft | 5 kts | 156° |
| 2026-05-04 14:19 | 60.28931 | 5.22343 | 167 ft | 4 kts | 89° |
| 2026-05-04 14:19 | 60.28939 | 5.22401 | 167 ft | 4 kts | 70° |
| 2026-05-04 14:20 | 60.28941 | 5.22465 | 168 ft | 4 kts | 105° |
| 2026-05-04 14:20 | 60.28932 | 5.22519 | 168 ft | 3 kts | 107° |
| 2026-05-04 14:20 | 60.28928 | 5.22549 | 169 ft | 0 kts | 107° |